Time;durP1;ratioP1;P1;durP2;ratioP2;P2;SDS_P1;SDS_P2;PMS_P1;PMS_P2;Temp;Humidity;BMP_temperature;BMP_pressure;BME280_temperature;BME280_humidity;BME280_pressure;Samples;Min_cycle;Max_cycle;Signal;HPM_P1;HPM_P2
2022/02/26 00:00:06;;;;;;;10.45;2.85;;;;;;;6.55;57.38;103129.53;4969200;28;122816;-68
2022/02/26 00:02:34;;;;;;;12.15;3.05;;;;;;;6.54;57.25;103144.44;4969847;28;124177;-70
2022/02/26 00:05:03;;;;;;;9.45;3.10;;;;;;;6.54;57.08;103143.59;4970889;28;113345;-69
2022/02/26 00:07:30;;;;;;;14.23;2.70;;;;;;;6.52;57.34;103140.06;4951251;28;114121;-69
2022/02/26 00:09:57;;;;;;;9.07;3.00;;;;;;;6.52;57.18;103145.31;4966073;28;124270;-69
2022/02/26 00:12:26;;;;;;;11.00;3.05;;;;;;;6.52;57.14;103145.31;4969034;28;124176;-69
2022/02/26 00:14:53;;;;;;;11.13;2.85;;;;;;;6.49;57.45;103146.16;4968765;28;114182;-69
2022/02/26 00:17:20;;;;;;;10.00;2.80;;;;;;;6.48;57.26;103143.50;4968517;28;114307;-69
2022/02/26 00:19:47;;;;;;;10.35;3.00;;;;;;;6.45;57.13;103140.88;4967226;28;124118;-69
2022/02/26 00:22:14;;;;;;;10.00;2.85;;;;;;;6.43;57.14;103141.72;4953409;28;122725;-69
2022/02/26 00:24:42;;;;;;;9.63;2.97;;;;;;;6.41;57.38;103148.72;4968965;28;115460;-69
2022/02/26 00:27:10;;;;;;;8.52;2.97;;;;;;;6.40;57.24;103157.50;4968998;28;114422;-70
2022/02/26 00:29:40;;;;;;;11.40;3.13;;;;;;;6.38;57.05;103159.22;4969696;28;124968;-70
2022/02/26 00:32:07;;;;;;;14.20;3.35;;;;;;;6.34;57.40;103167.94;4968256;28;125292;-69
2022/02/26 00:34:35;;;;;;;10.13;2.85;;;;;;;6.31;57.37;103162.66;4970662;28;115248;-69
2022/02/26 00:37:04;;;;;;;9.43;3.00;;;;;;;6.27;57.25;103160.84;4969815;28;114149;-69
2022/02/26 00:39:31;;;;;;;12.07;2.65;;;;;;;6.26;57.36;103169.63;4969839;28;123168;-69
2022/02/26 00:41:59;;;;;;;12.45;2.80;;;;;;;6.25;57.19;103170.47;4968861;28;123315;-69
2022/02/26 00:44:26;;;;;;;8.45;2.58;;;;;;;6.24;57.48;103176.63;4968470;28;115023;-69
2022/02/26 00:46:54;;;;;;;7.57;2.60;;;;;;;6.24;57.29;103187.16;4970108;28;112962;-69
2022/02/26 00:52:07;;;;;;;;;;;;;;;6.21;57.51;103187.09;4970474;28;123334;-69
2022/02/26 00:54:34;;;;;;;9.52;2.53;;;;;;;6.20;57.32;103185.34;4969859;28;114759;-69
2022/02/26 00:57:02;;;;;;;11.23;2.60;;;;;;;6.19;57.30;103183.56;4968886;28;114251;-69
2022/02/26 00:59:29;;;;;;;14.18;3.00;;;;;;;6.18;57.20;103192.34;4969657;28;124164;-70
2022/02/26 01:01:57;;;;;;;11.10;2.88;;;;;;;6.15;57.46;103185.28;4968082;28;124000;-69
2022/02/26 01:04:25;;;;;;;11.38;2.85;;;;;;;6.14;57.26;103190.53;4965962;28;113154;-69
2022/02/26 01:06:53;;;;;;;9.50;2.47;;;;;;;6.13;57.58;103188.78;4961133;28;114132;-69
2022/02/26 01:09:20;;;;;;;9.60;3.00;;;;;;;6.11;57.31;103190.50;4964161;28;124030;-69
2022/02/26 01:11:48;;;;;;;11.38;3.25;;;;;;;6.08;57.31;103201.88;4969455;28;123969;-69
2022/02/26 01:14:17;;;;;;;11.75;2.95;;;;;;;6.06;57.52;103210.63;4937547;28;114056;-70
2022/02/26 01:16:44;;;;;;;10.23;3.30;;;;;;;6.01;57.28;103214.06;4951425;28;113976;-69
2022/02/26 01:19:11;;;;;;;10.27;2.70;;;;;;;5.96;57.08;103213.13;4969177;28;123098;-68
2022/02/26 01:21:39;;;;;;;10.02;3.30;;;;;;;5.91;57.41;103212.16;4951917;28;122897;-69
2022/02/26 01:24:07;;;;;;;11.80;3.03;;;;;;;5.88;57.10;103214.75;4970266;28;115704;-69
2022/02/26 01:26:34;;;;;;;8.57;2.80;;;;;;;5.83;57.30;103221.69;4949003;28;115072;-69
2022/02/26 01:29:03;;;;;;;8.73;2.42;;;;;;;5.78;57.33;103224.28;4959700;28;124299;-70
2022/02/26 01:31:33;;;;;;;10.48;2.65;;;;;;;5.76;57.37;103230.34;4969824;28;123787;-69
2022/02/26 01:34:01;;;;;;;11.27;2.95;;;;;;;5.72;57.35;103239.06;4956571;28;114816;-69
2022/02/26 01:36:28;;;;;;;15.13;2.83;;;;;;;5.67;57.30;103241.66;4972692;28;113162;-69
2022/02/26 01:38:55;;;;;;;14.15;2.83;;;;;;;5.61;56.96;103241.53;4973455;28;123839;-69
2022/02/26 01:41:23;;;;;;;13.73;2.80;;;;;;;5.55;57.43;103241.47;4971958;28;123000;-69
2022/02/26 01:43:50;;;;;;;13.27;3.20;;;;;;;5.49;57.14;103239.63;4959202;28;114150;-69
2022/02/26 01:46:17;;;;;;;14.18;3.20;;;;;;;5.45;57.58;103236.06;4952742;28;114107;-69
2022/02/26 01:48:44;;;;;;;13.65;3.63;;;;;;;5.43;57.34;103234.28;4935811;28;123161;-69
2022/02/26 01:51:12;;;;;;;15.82;3.17;;;;;;;5.41;57.50;103236.00;4936406;28;123850;-69
2022/02/26 01:53:39;;;;;;;13.30;3.55;;;;;;;5.39;57.44;103230.72;4936968;28;113730;-69
2022/02/26 01:56:08;;;;;;;9.57;3.10;;;;;;;5.38;57.54;103222.81;4934030;28;114314;-70
2022/02/26 01:58:37;;;;;;;10.65;3.17;;;;;;;5.36;57.57;103214.91;4920942;28;122944;-69
2022/02/26 02:01:08;;;;;;;12.85;3.38;;;;;;;5.37;57.66;103221.03;4951673;28;124224;-70
2022/02/26 02:03:35;;;;;;;12.35;4.03;;;;;;;5.36;57.46;103219.28;4936423;28;113020;-69
2022/02/26 02:06:03;;;;;;;11.20;3.40;;;;;;;5.36;57.72;103224.53;4954709;28;113827;-69
2022/02/26 02:08:30;;;;;;;15.45;3.78;;;;;;;5.34;57.60;103218.38;4950656;28;124425;-69
2022/02/26 02:10:58;;;;;;;13.57;3.75;;;;;;;5.33;57.65;103224.47;4935801;28;123013;-69
2022/02/26 02:13:26;;;;;;;10.00;3.75;;;;;;;5.32;57.72;103234.13;4935976;28;114261;-68
2022/02/26 02:15:54;;;;;;;11.65;3.80;;;;;;;5.31;57.61;103236.72;4951140;28;114971;-68
2022/02/26 02:18:22;;;;;;;14.48;3.65;;;;;;;5.29;57.91;103234.06;4951795;28;122887;-68
2022/02/26 02:20:49;;;;;;;17.02;3.55;;;;;;;5.29;57.74;103238.44;4934910;28;123989;-69
2022/02/26 02:23:17;;;;;;;12.95;3.85;;;;;;;5.25;57.65;103233.16;4920292;28;113495;-68
2022/02/26 02:25:44;;;;;;;8.90;3.33;;;;;;;5.24;57.66;103231.38;4950944;28;114823;-69
2022/02/26 02:28:11;;;;;;;11.40;3.67;;;;;;;5.23;57.76;103233.97;4919606;28;122941;-69
2022/02/26 02:30:40;;;;;;;13.63;3.92;;;;;;;5.22;57.57;103243.59;4951996;28;124072;-69
2022/02/26 02:33:09;;;;;;;14.55;3.60;;;;;;;5.20;57.82;103232.19;4936128;28;113415;-69
2022/02/26 02:35:39;;;;;;;15.88;4.03;;;;;;;5.18;57.92;103231.28;4953291;28;113865;-68
2022/02/26 02:38:13;;;;;;;9.80;3.50;;;;;;;5.18;57.85;103230.38;4950600;28;124282;-69
2022/02/26 02:40:43;;;;;;;12.43;3.70;;;;;;;5.15;57.92;103225.09;4950467;28;123283;-69
2022/02/26 02:43:11;;;;;;;10.65;3.90;;;;;;;5.14;57.73;103234.72;4952198;28;114185;-69
2022/02/26 02:45:40;;;;;;;10.60;3.40;;;;;;;5.12;58.00;103231.16;4952030;28;113048;-69
2022/02/26 02:48:07;;;;;;;12.35;3.22;;;;;;;5.10;57.86;103237.25;4951123;28;122864;-69
2022/02/26 02:50:34;;;;;;;10.88;3.72;;;;;;;5.06;57.82;103236.31;4934543;28;123577;-69
2022/02/26 02:53:02;;;;;;;10.73;3.60;;;;;;;5.03;57.70;103241.53;4951722;28;114287;-68
2022/02/26 02:55:29;;;;;;;11.82;3.63;;;;;;;5.00;57.77;103251.97;4935923;28;112767;-68
2022/02/26 02:57:57;;;;;;;11.52;3.70;;;;;;;4.95;57.68;103241.38;4948887;28;124315;-69
2022/02/26 03:00:26;;;;;;;13.10;4.20;;;;;;;4.94;57.76;103236.13;4934770;28;123295;-70
2022/02/26 03:02:54;;;;;;;13.15;4.35;;;;;;;4.91;57.79;103241.31;4919237;28;114404;-69
2022/02/26 03:05:22;;;;;;;12.35;4.20;;;;;;;4.88;57.82;103237.78;4949923;28;115553;-69
2022/02/26 03:07:50;;;;;;;17.75;4.57;;;;;;;4.87;58.08;103236.00;4949814;28;124521;-69
2022/02/26 03:10:18;;;;;;;14.88;4.20;;;;;;;4.86;58.14;103236.00;4931726;28;124631;-68
2022/02/26 03:12:51;;;;;;;12.95;4.20;;;;;;;4.85;58.05;103236.84;4951023;28;114202;-69
2022/02/26 03:15:21;;;;;;;12.70;4.68;;;;;;;4.84;58.04;103241.22;4950214;28;113615;-69
2022/02/26 03:17:50;;;;;;;12.05;4.82;;;;;;;4.85;58.04;103242.09;4949720;28;123998;-68
2022/02/26 03:20:19;;;;;;;15.65;4.93;;;;;;;4.84;58.03;103241.22;4934792;28;123208;-70
2022/02/26 03:22:47;;;;;;;16.42;4.90;;;;;;;4.82;58.15;103227.19;4934195;28;114979;-69
2022/02/26 03:25:15;;;;;;;12.18;4.82;;;;;;;4.81;58.22;103233.28;4935201;28;113761;-69
2022/02/26 03:27:43;;;;;;;15.05;4.72;;;;;;;4.81;58.04;103235.91;4934477;28;123371;-68
2022/02/26 03:30:11;;;;;;;12.50;4.90;;;;;;;4.80;58.03;103234.16;4949469;28;123953;-68
2022/02/26 03:32:40;;;;;;;15.95;5.13;;;;;;;4.79;58.17;103232.38;4950687;28;115225;-69
2022/02/26 03:35:08;;;;;;;13.18;5.30;;;;;;;4.79;58.26;103236.75;4919582;28;113302;-69
2022/02/26 03:37:35;;;;;;;14.02;5.25;;;;;;;4.78;57.98;103234.97;4918739;28;122987;-68
2022/02/26 03:40:06;;;;;;;14.18;5.38;;;;;;;4.76;58.31;103241.94;4933990;28;122841;-69
2022/02/26 03:42:36;;;;;;;19.02;5.53;;;;;;;4.74;58.09;103236.66;4949993;28;113803;-69
2022/02/26 03:45:05;;;;;;;11.98;5.20;;;;;;;4.73;58.12;103227.03;4935129;28;113382;-68
2022/02/26 03:47:33;;;;;;;12.73;5.30;;;;;;;4.73;58.20;103253.28;4950187;28;122880;-69
2022/02/26 03:50:03;;;;;;;10.32;5.00;;;;;;;4.72;58.08;103267.25;4951747;28;96715;-69
2022/02/26 03:52:33;;;;;;;12.88;5.35;;;;;;;4.68;58.08;103275.91;4918011;28;114388;-69
2022/02/26 03:55:04;;;;;;;14.70;5.60;;;;;;;4.65;58.00;103273.22;4949328;28;114867;-69
2022/02/26 03:57:32;;;;;;;11.88;5.57;;;;;;;4.63;58.31;103277.56;4918628;28;123071;-69
2022/02/26 03:59:59;;;;;;;15.65;5.53;;;;;;;4.62;58.52;103288.94;4934072;28;123410;-69
2022/02/26 04:02:28;;;;;;;16.80;5.43;;;;;;;4.61;58.39;103289.78;4950015;28;114694;-69
2022/02/26 04:04:55;;;;;;;14.10;6.00;;;;;;;4.59;58.34;103291.50;4950936;28;112869;-69
2022/02/26 04:07:23;;;;;;;14.80;5.50;;;;;;;4.57;58.18;103293.19;4951614;28;124552;-69
2022/02/26 04:09:50;;;;;;;12.30;6.30;;;;;;;4.57;58.40;103298.44;4934405;28;123479;-70
2022/02/26 04:12:17;;;;;;;15.68;5.50;;;;;;;4.56;58.36;103308.06;4950495;28;114248;-69
2022/02/26 04:14:44;;;;;;;18.30;5.95;;;;;;;4.55;58.68;103305.41;4933801;28;114021;-69
2022/02/26 04:17:13;;;;;;;14.43;6.22;;;;;;;4.56;58.59;103312.41;4934153;28;122966;-69
2022/02/26 04:19:40;;;;;;;16.25;6.57;;;;;;;4.56;58.33;103317.66;4933636;28;122593;-69
2022/02/26 04:22:07;;;;;;;11.13;5.63;;;;;;;4.55;58.68;103315.91;4934005;28;114853;-69
2022/02/26 04:24:35;;;;;;;17.55;5.80;;;;;;;4.54;58.67;103329.88;4950229;28;113302;-69
2022/02/26 04:27:03;;;;;;;17.83;5.70;;;;;;;4.54;58.67;103329.88;4950785;28;123154;-69
2022/02/26 04:29:30;;;;;;;16.73;6.10;;;;;;;4.54;58.66;103329.88;4933760;28;122977;-69
2022/02/26 04:31:58;;;;;;;18.55;6.28;;;;;;;4.54;58.57;103329.88;4931001;28;114255;-69
2022/02/26 04:34:25;;;;;;;19.38;6.55;;;;;;;4.54;58.91;103335.13;4952222;28;114071;-69
2022/02/26 04:36:53;;;;;;;19.38;5.95;;;;;;;4.53;58.54;103338.63;4948906;28;124029;-69
2022/02/26 04:39:21;;;;;;;14.90;6.05;;;;;;;4.54;58.91;103345.63;4934388;28;122761;-69
2022/02/26 04:41:48;;;;;;;19.80;6.13;;;;;;;4.54;58.79;103336.03;4933422;28;114236;-69
2022/02/26 04:44:16;;;;;;;15.95;6.35;;;;;;;4.55;58.75;103336.91;4951744;28;115375;-68
2022/02/26 04:46:43;;;;;;;15.52;6.28;;;;;;;4.56;58.80;103338.66;4918062;28;123053;-69
2022/02/26 04:49:11;;;;;;;16.17;6.30;;;;;;;4.55;58.67;103342.16;4947588;28;124594;-69
2022/02/26 04:51:38;;;;;;;16.83;5.63;;;;;;;4.54;58.80;103346.53;4933654;28;113086;-69
2022/02/26 04:54:05;;;;;;;16.13;6.20;;;;;;;4.55;58.52;103342.16;4951244;28;114206;-69
2022/02/26 04:56:32;;;;;;;17.98;6.78;;;;;;;4.54;58.68;103340.38;4948476;28;124167;-70
2022/02/26 04:58:59;;;;;;;19.13;6.60;;;;;;;4.54;58.83;103345.63;4950950;28;123892;-69
2022/02/26 05:01:26;;;;;;;11.45;5.70;;;;;;;4.52;58.69;103342.06;4947599;28;114071;-69
2022/02/26 05:03:54;;;;;;;15.68;6.43;;;;;;;4.49;58.85;103337.66;4951159;28;113827;-69
2022/02/26 05:06:23;;;;;;;15.80;6.00;;;;;;;4.49;58.78;103333.28;4952996;28;123861;-69
2022/02/26 05:08:50;;;;;;;19.95;5.97;;;;;;;4.48;58.94;103342.03;4937051;28;122993;-70
2022/02/26 05:11:17;;;;;;;15.77;6.10;;;;;;;4.49;58.87;103343.78;4952893;28;113368;-69
2022/02/26 05:13:44;;;;;;;19.35;6.85;;;;;;;4.51;58.59;103337.69;4954263;28;113933;-69
2022/02/26 05:16:11;;;;;;;14.68;5.97;;;;;;;4.52;58.86;103342.06;4934580;28;124794;-69
2022/02/26 05:18:38;;;;;;;16.35;5.55;;;;;;;4.51;59.04;103342.94;4920864;28;122671;-69
2022/02/26 05:21:06;;;;;;;19.60;6.30;;;;;;;4.51;58.68;103345.56;4952545;28;113700;-69
2022/02/26 05:23:33;;;;;;;19.98;6.88;;;;;;;4.51;58.91;103337.69;4937811;28;113219;-69
2022/02/26 05:26:00;;;;;;;18.35;6.93;;;;;;;4.52;58.92;103334.22;4934199;28;124215;-69
2022/02/26 05:28:27;;;;;;;14.07;6.07;;;;;;;4.53;58.91;103343.88;4936553;28;123893;-69
2022/02/26 05:30:54;;;;;;;17.48;6.32;;;;;;;4.55;58.99;103342.16;4932950;28;115070;-69
2022/02/26 05:33:22;;;;;;;19.15;6.18;;;;;;;4.58;58.98;103357.97;4937094;28;114866;-69
2022/02/26 05:35:49;;;;;;;13.80;6.50;;;;;;;4.60;58.77;103356.25;4952902;28;124874;-69
2022/02/26 05:38:16;;;;;;;16.17;7.07;;;;;;;4.60;58.92;103356.25;4936645;28;122923;-70
2022/02/26 05:40:43;;;;;;;16.65;6.45;;;;;;;4.59;58.77;103354.47;4936731;28;113516;-69
2022/02/26 05:43:11;;;;;;;15.07;6.20;;;;;;;4.61;58.85;103363.25;4935618;28;114373;-69
2022/02/26 05:45:39;;;;;;;16.73;6.55;;;;;;;4.59;58.99;103359.72;4936583;28;123079;-69
2022/02/26 05:48:07;;;;;;;14.85;7.10;;;;;;;4.61;58.92;103368.50;4951433;28;124627;-69
2022/02/26 05:50:35;;;;;;;13.88;6.63;;;;;;;4.62;59.09;103365.06;4950684;28;114915;-69
2022/02/26 05:53:02;;;;;;;17.98;6.72;;;;;;;4.63;58.81;103361.56;4952893;28;114181;-69
2022/02/26 05:55:29;;;;;;;15.32;6.50;;;;;;;4.62;58.75;103365.94;4936030;28;123664;-68
2022/02/26 05:57:57;;;;;;;15.23;6.82;;;;;;;4.60;58.83;103372.00;4951427;28;124328;-69
2022/02/26 06:00:25;;;;;;;15.80;7.13;;;;;;;4.59;58.79;103381.59;4934079;28;114165;-69
2022/02/26 06:02:52;;;;;;;15.60;6.43;;;;;;;4.59;58.94;103386.84;4952419;28;113197;-69
2022/02/26 06:05:20;;;;;;;14.02;6.47;;;;;;;4.59;59.08;103380.72;4950711;28;124341;-69
2022/02/26 06:07:47;;;;;;;14.27;6.35;;;;;;;4.58;59.12;103384.22;4933476;28;123803;-69
2022/02/26 06:10:14;;;;;;;14.38;6.75;;;;;;;4.55;58.90;103389.41;4935773;28;113140;-69
2022/02/26 06:12:41;;;;;;;17.30;6.75;;;;;;;4.52;58.71;103394.56;4935223;28;114089;-69
2022/02/26 06:15:09;;;;;;;14.60;6.43;;;;;;;4.48;58.73;103405.00;4950677;28;124130;-69
2022/02/26 06:17:37;;;;;;;14.63;6.70;;;;;;;4.47;58.82;103397.09;4934084;28;122817;-69
2022/02/26 06:20:06;;;;;;;14.07;6.50;;;;;;;4.44;58.74;103397.91;4948948;28;115454;-69
2022/02/26 06:22:34;;;;;;;15.05;6.20;;;;;;;4.41;58.87;103403.09;4951663;28;114108;-70
2022/02/26 06:25:02;;;;;;;16.48;6.50;;;;;;;4.39;58.86;103410.06;4920012;28;122928;-70
2022/02/26 06:27:29;;;;;;;15.48;6.55;;;;;;;4.37;58.69;103411.75;4951444;28;122754;-69
2022/02/26 06:29:56;;;;;;;14.70;7.00;;;;;;;4.34;58.75;103416.06;4951087;28;114305;-68
2022/02/26 06:32:24;;;;;;;17.92;6.05;;;;;;;4.30;58.75;103420.34;4936728;28;113241;-69
2022/02/26 06:34:51;;;;;;;13.80;6.63;;;;;;;4.27;58.58;103421.13;4951113;28;124800;-69
2022/02/26 06:37:18;;;;;;;13.45;6.43;;;;;;;4.24;59.07;103428.09;4936490;28;124734;-69
2022/02/26 06:39:45;;;;;;;13.43;6.35;;;;;;;4.23;58.73;103423.66;4936253;28;113081;-69
2022/02/26 06:42:12;;;;;;;12.95;5.75;;;;;;;4.21;58.68;103425.38;4936650;28;112491;-69
2022/02/26 06:44:39;;;;;;;12.95;6.55;;;;;;;4.20;58.58;103428.84;4950371;28;123793;-70
2022/02/26 06:47:07;;;;;;;17.80;6.47;;;;;;;4.17;59.01;103423.53;4920823;28;123003;-69
2022/02/26 06:49:40;;;;;;;13.43;6.25;;;;;;;4.13;58.85;103426.94;4933775;28;114556;-70
2022/02/26 06:52:08;;;;;;;19.23;6.85;;;;;;;4.12;58.68;103436.53;4936404;28;113316;-70
2022/02/26 06:54:36;;;;;;;12.35;6.30;;;;;;;4.10;58.73;103433.84;4934614;28;124929;-70
2022/02/26 06:57:04;;;;;;;15.10;6.47;;;;;;;4.08;58.73;103435.56;4950724;28;124023;-69
2022/02/26 06:59:32;;;;;;;19.10;7.38;;;;;;;4.08;58.95;103439.94;4953238;28;114106;-69
2022/02/26 07:02:00;;;;;;;18.48;6.70;;;;;;;4.07;58.85;103433.81;4951865;28;113766;-69
2022/02/26 07:04:29;;;;;;;20.23;6.82;;;;;;;4.06;58.84;103437.25;4950681;28;123998;-69
2022/02/26 07:06:57;;;;;;;12.98;6.53;;;;;;;4.06;58.78;103442.50;4935929;28;123485;-69
2022/02/26 07:09:24;;;;;;;19.15;7.50;;;;;;;4.07;58.72;103444.28;4951422;28;115033;-69
2022/02/26 07:11:51;;;;;;;19.70;7.00;;;;;;;4.07;58.80;103446.91;4935799;28;113838;-69
2022/02/26 07:14:18;;;;;;;19.45;7.30;;;;;;;4.09;58.92;103453.09;4951642;28;124339;-69
2022/02/26 07:16:46;;;;;;;16.73;7.35;;;;;;;4.10;58.88;103444.34;4932866;28;123914;-69
2022/02/26 07:19:13;;;;;;;18.33;7.10;;;;;;;4.12;58.92;103446.13;4951139;28;114697;-69
2022/02/26 07:21:40;;;;;;;12.68;6.97;;;;;;;4.13;58.91;103446.19;4934445;28;114648;-69
2022/02/26 07:24:08;;;;;;;15.52;6.97;;;;;;;4.15;58.87;103456.72;4935479;28;124217;-69
2022/02/26 07:26:36;;;;;;;15.52;6.65;;;;;;;4.16;58.85;103458.47;4936018;28;122864;-69
2022/02/26 07:29:04;;;;;;;14.35;6.93;;;;;;;4.18;58.96;103462.00;4951898;28;113223;-69
2022/02/26 07:31:32;;;;;;;14.85;7.80;;;;;;;4.19;58.96;103463.81;4952335;28;114222;-69
2022/02/26 07:33:59;;;;;;;11.60;7.13;;;;;;;4.21;59.05;103467.34;4935006;28;123131;-69
2022/02/26 07:36:26;;;;;;;11.30;6.38;;;;;;;4.22;59.08;103463.84;4951191;28;123844;-69
2022/02/26 07:38:54;;;;;;;14.98;6.85;;;;;;;4.23;58.54;103468.25;4935481;28;113342;-69
2022/02/26 07:41:21;;;;;;;16.30;6.57;;;;;;;4.23;58.96;103470.88;4951056;28;113156;-69
2022/02/26 07:43:48;;;;;;;13.02;6.15;;;;;;;4.26;59.13;103476.22;4952258;28;124307;-69
2022/02/26 07:46:16;;;;;;;11.75;5.90;;;;;;;4.29;59.01;103481.50;4935235;28;123281;-70
2022/02/26 07:48:43;;;;;;;14.70;6.47;;;;;;;4.31;59.20;103485.06;4950431;28;114185;-69
2022/02/26 07:51:12;;;;;;;9.77;6.68;;;;;;;4.35;59.28;103492.19;4932619;28;115179;-69
2022/02/26 07:53:40;;;;;;;11.32;6.80;;;;;;;4.40;59.09;103484.41;4951783;28;123871;-69
2022/02/26 07:56:07;;;;;;;11.93;6.28;;;;;;;4.43;58.99;103485.38;4952149;28;125385;-70
2022/02/26 07:58:34;;;;;;;11.82;6.05;;;;;;;4.47;59.47;103487.19;4919156;28;114399;-69
2022/02/26 08:01:01;;;;;;;11.57;6.93;;;;;;;4.53;59.37;103490.81;4950736;28;113800;-69
2022/02/26 08:03:29;;;;;;;13.90;6.50;;;;;;;4.58;59.21;103505.81;4950107;28;124183;-69
2022/02/26 08:05:57;;;;;;;18.63;9.43;;;;;;;4.63;59.33;103504.19;4935210;28;123068;-69
2022/02/26 08:08:24;;;;;;;20.77;9.80;;;;;;;4.68;59.34;103512.16;4932700;28;114111;-69
2022/02/26 08:10:52;;;;;;;22.33;9.45;;;;;;;4.69;59.34;103503.47;4948970;28;115324;-70
2022/02/26 08:13:19;;;;;;;22.05;10.27;;;;;;;4.72;59.30;103493.00;4950876;28;124625;-70
2022/02/26 08:15:46;;;;;;;15.68;9.63;;;;;;;4.77;59.23;103512.38;4949663;28;124247;-70
2022/02/26 08:18:15;;;;;;;17.17;10.18;;;;;;;4.81;59.22;103503.72;4950853;28;114344;-70
2022/02/26 08:20:42;;;;;;;20.85;9.65;;;;;;;4.85;59.26;103500.28;4934207;28;113527;-70
2022/02/26 08:23:09;;;;;;;20.85;8.30;;;;;;;4.88;59.29;103500.38;4932872;28;123993;-70
2022/02/26 08:25:36;;;;;;;19.25;7.97;;;;;;;4.92;59.15;103495.19;4951798;28;123908;-70
2022/02/26 08:28:04;;;;;;;13.07;7.85;;;;;;;4.95;59.48;103500.50;4935365;28;113342;-70
2022/02/26 08:30:32;;;;;;;13.27;7.38;;;;;;;4.99;59.34;103502.31;4918679;28;113100;-70
2022/02/26 08:32:59;;;;;;;14.95;7.55;;;;;;;5.05;59.52;103507.72;4950518;28;124195;-70
2022/02/26 08:35:26;;;;;;;13.55;7.75;;;;;;;5.10;59.52;103500.81;4951270;28;124547;-70
2022/02/26 08:37:53;;;;;;;10.43;7.68;;;;;;;5.16;59.72;103505.31;4951068;28;114342;-70
2022/02/26 08:40:21;;;;;;;12.48;7.90;;;;;;;5.22;59.56;103506.31;4948278;28;115014;-70
2022/02/26 08:42:48;;;;;;;11.63;8.02;;;;;;;5.29;59.59;103501.19;4950392;28;123510;-69
2022/02/26 08:45:15;;;;;;;13.82;9.25;;;;;;;5.34;59.47;103504.81;4918207;28;123268;-70
2022/02/26 08:47:43;;;;;;;16.65;9.32;;;;;;;5.40;59.49;103504.91;4948969;28;114955;-70
2022/02/26 08:50:13;;;;;;;15.50;11.13;;;;;;;5.46;59.45;103507.66;4950425;28;113949;-71
2022/02/26 08:52:40;;;;;;;17.85;12.00;;;;;;;5.51;59.78;103498.13;4934001;28;123948;-71
2022/02/26 08:55:09;;;;;;;19.00;12.15;;;;;;;5.58;59.83;103510.53;4918574;28;122966;-70
2022/02/26 08:57:37;;;;;;;16.35;11.30;;;;;;;5.63;59.96;103508.88;4950401;28;114845;-70
2022/02/26 09:00:07;;;;;;;18.15;10.98;;;;;;;5.71;59.66;103505.47;4950025;28;114428;-70
2022/02/26 09:02:35;;;;;;;13.95;9.50;;;;;;;5.79;59.61;103514.41;4949585;28;124520;-70
2022/02/26 09:05:03;;;;;;;18.02;10.88;;;;;;;5.86;59.99;103518.94;4931921;28;124161;-70
2022/02/26 09:07:30;;;;;;;17.42;10.90;;;;;;;5.93;60.17;103518.16;4949458;28;114797;-70
2022/02/26 09:09:57;;;;;;;16.85;12.27;;;;;;;6.03;60.12;103520.13;4948591;28;113846;-70
2022/02/26 09:12:24;;;;;;;17.27;12.07;;;;;;;6.13;60.04;103520.28;4933532;28;123037;-70
2022/02/26 09:14:53;;;;;;;20.02;12.52;;;;;;;6.24;60.26;103513.47;4950833;28;125084;-69
2022/02/26 09:17:20;;;;;;;18.77;12.88;;;;;;;6.35;60.48;103517.16;4931590;28;114562;-69
2022/02/26 09:19:47;;;;;;;22.38;13.82;;;;;;;6.50;60.64;103520.84;4933551;28;113223;-70
2022/02/26 09:22:14;;;;;;;22.80;13.93;;;;;;;6.63;60.49;103512.31;4951424;28;124374;-69
2022/02/26 09:24:42;;;;;;;22.75;14.98;;;;;;;6.74;60.45;103521.25;4949636;28;124559;-69
2022/02/26 09:27:09;;;;;;;26.75;14.27;;;;;;;6.83;60.30;103516.09;4931552;28;115240;-70
2022/02/26 09:29:36;;;;;;;23.95;14.70;;;;;;;6.95;60.85;103517.09;4947879;28;113906;-69
2022/02/26 09:32:04;;;;;;;21.50;13.48;;;;;;;7.08;60.48;103520.78;4949554;28;124488;-69
2022/02/26 09:34:32;;;;;;;24.35;13.55;;;;;;;7.16;60.62;103530.59;4950165;28;123170;-69
2022/02/26 09:36:59;;;;;;;22.38;12.93;;;;;;;7.26;60.73;103530.69;4933652;28;114278;-69
2022/02/26 09:39:27;;;;;;;21.77;12.60;;;;;;;7.39;60.73;103525.56;4934042;28;114182;-69
2022/02/26 09:41:57;;;;;;;19.55;11.95;;;;;;;7.53;60.81;103536.28;4933183;28;124161;-69
2022/02/26 09:44:25;;;;;;;20.08;11.48;;;;;;;7.67;60.37;103532.94;4950565;28;123894;-69
2022/02/26 09:46:52;;;;;;;20.08;11.48;;;;;;;7.78;60.81;103531.28;4951310;28;114396;-69
2022/02/26 09:49:20;;;;;;;21.02;11.70;;;;;;;7.90;60.63;103515.56;4948429;28;114119;-69
2022/02/26 09:51:48;;;;;;;18.92;10.90;;;;;;;8.03;60.68;103520.97;4918514;28;123090;-69
2022/02/26 09:54:16;;;;;;;19.05;10.13;;;;;;;8.15;60.61;103521.03;4954701;28;123963;-69
2022/02/26 09:56:44;;;;;;;18.58;10.20;;;;;;;8.26;60.50;103521.13;4936490;28;114323;-69
2022/02/26 09:59:13;;;;;;;20.63;10.55;;;;;;;8.38;60.50;103506.28;4950262;28;114027;-69
2022/02/26 10:02:10;;;;;;;19.20;10.05;;;;;;;8.52;60.22;103514.31;4949933;28;124135;-69
2022/02/26 10:04:51;;;;;;;18.20;9.73;;;;;;;8.64;60.03;103516.16;4936280;28;122846;-68
2022/02/26 10:07:20;;;;;;;17.95;9.05;;;;;;;8.74;60.48;103507.41;4953864;28;114270;-69
2022/02/26 10:09:48;;;;;;;17.13;8.65;;;;;;;8.86;60.53;103511.00;4950882;28;114136;-69
2022/02/26 10:12:27;;;;;;;16.25;7.90;;;;;;;8.97;60.38;103506.66;4950977;28;124682;-69
2022/02/26 10:14:57;;;;;;;16.83;7.28;;;;;;;9.09;60.23;103508.44;4952435;28;124272;-69
2022/02/26 10:17:32;;;;;;;14.95;6.85;;;;;;;9.20;60.24;103511.16;4934520;28;114654;-69
2022/02/26 10:20:02;;;;;;;15.85;7.20;;;;;;;9.31;59.99;103509.44;4952738;28;112940;-69
2022/02/26 10:22:31;;;;;;;18.02;7.38;;;;;;;9.41;60.20;103505.91;4935906;28;122975;-69
2022/02/26 10:25:10;;;;;;;13.02;6.20;;;;;;;9.54;60.38;103513.00;4936846;28;123296;-69
2022/02/26 10:27:40;;;;;;;12.77;7.07;;;;;;;9.69;60.20;103511.28;4950817;28;115124;-68
2022/02/26 10:30:08;;;;;;;13.27;7.22;;;;;;;9.82;60.00;103507.75;4936340;28;115215;-69
2022/02/26 10:32:35;;;;;;;17.85;7.50;;;;;;;9.92;59.61;103496.28;4935544;28;124538;-69
2022/02/26 10:35:03;;;;;;;15.70;7.18;;;;;;;10.03;59.75;103506.00;4952423;28;122722;-69
2022/02/26 10:37:32;;;;;;;11.25;6.60;;;;;;;10.08;59.40;103504.25;4951110;28;114299;-70
2022/02/26 10:40:00;;;;;;;17.13;6.60;;;;;;;10.16;59.16;103499.84;4933106;28;114881;-69
2022/02/26 10:42:32;;;;;;;14.55;6.07;;;;;;;10.20;59.41;103498.94;4935960;28;122643;-68
2022/02/26 10:45:01;;;;;;;17.52;5.68;;;;;;;10.30;59.49;103495.44;4953569;28;123997;-69
2022/02/26 10:47:31;;;;;;;13.57;3.78;;;;;;;10.43;58.92;103495.41;4920360;28;113471;-69
2022/02/26 10:49:59;;;;;;;14.00;3.92;;;;;;;10.53;59.04;103491.88;4949948;28;114163;-69
2022/02/26 10:52:31;;;;;;;7.57;3.83;;;;;;;10.59;58.79;103488.34;4951057;28;123882;-68
2022/02/26 10:55:06;;;;;;;11.63;3.78;;;;;;;10.61;58.45;103495.38;4952865;28;124228;-68
2022/02/26 10:57:33;;;;;;;7.65;3.08;;;;;;;10.62;58.29;103489.19;4952055;28;114784;-68
2022/02/26 11:00:01;;;;;;;10.68;3.80;;;;;;;10.62;57.99;103481.22;4950094;28;114023;-69
2022/02/26 11:02:29;;;;;;;16.30;3.67;;;;;;;10.64;58.03;103495.38;4935475;28;123000;-68
2022/02/26 11:04:57;;;;;;;11.50;3.88;;;;;;;10.64;57.82;103484.78;4935007;28;124933;-70
2022/02/26 11:07:26;;;;;;;8.80;3.63;;;;;;;10.69;57.91;103482.97;4936343;28;113468;-68
2022/02/26 11:09:54;;;;;;;13.38;4.00;;;;;;;10.78;58.29;103481.22;4936420;28;112828;-67
2022/02/26 11:12:24;;;;;;;12.07;4.00;;;;;;;10.88;58.04;103477.63;4919365;28;123168;-68
2022/02/26 11:14:58;;;;;;;11.02;3.80;;;;;;;10.96;57.75;103481.13;4950399;28;125154;-68
2022/02/26 11:17:28;;;;;;;12.32;4.03;;;;;;;11.03;57.41;103482.84;4949969;28;115415;-68
2022/02/26 11:20:01;;;;;;;10.27;4.35;;;;;;;11.07;57.44;103479.28;4935351;28;114080;-67
2022/02/26 11:22:28;;;;;;;10.65;4.90;;;;;;;11.14;57.14;103468.69;4935280;28;123268;-68